Time;durP1;ratioP1;P1;durP2;ratioP2;P2;SDS_P1;SDS_P2;PMS_P1;PMS_P2;Temp;Humidity;BMP_temperature;BMP_pressure;BME280_temperature;BME280_humidity;BME280_pressure;Samples;Min_cycle;Max_cycle;Signal;HPM_P1;HPM_P2
2021/11/23 00:01:49;;;;;;;;;;;;;;;-1.05;100.00;101889.44;5094253;28;20391;-75
2021/11/23 00:04:15;;;;;;;;;;;;;;;-1.03;100.00;101876.97;5094004;28;20058;-74
2021/11/23 00:06:41;;;;;;;;;;;;;;;-1.02;100.00;101873.41;5093820;28;20027;-74
2021/11/23 00:09:07;;;;;;;;;;;;;;;-1.04;100.00;101889.41;5093998;28;20031;-74
2021/11/23 00:11:34;;;;;;;;;;;;;;;-1.02;100.00;101881.41;5098230;28;20042;-74
2021/11/23 00:14:00;;;;;;;;;;;;;;;-0.99;100.00;101885.81;5094666;28;19925;-74
2021/11/23 00:16:26;;;;;;;;;;;;;;;-0.98;100.00;101888.44;5093387;28;19981;-74
2021/11/23 00:18:54;;;;;;;;;;;;;;;-0.98;100.00;101885.78;5075792;28;19924;-74
2021/11/23 00:21:20;;;;;;;;;;;;;;;-1.04;100.00;101881.41;5093508;28;19998;-74
2021/11/23 00:23:46;;;;;;;;;;;;;;;-1.09;100.00;101875.28;5075750;28;19941;-74
2021/11/23 00:26:13;;;;;;;;;;;;;;;-1.12;100.00;101883.31;5093461;28;20023;-74
2021/11/23 00:28:39;;;;;;;;;;;;;;;-1.08;100.00;101881.47;5093272;28;20407;-74
2021/11/23 00:31:05;;;;;;;;;;;;;;;-1.08;100.00;101870.81;5075497;28;19973;-74
2021/11/23 00:33:36;;;;;;;;;;;;;;;-1.11;100.00;101876.19;5093360;28;19959;-74
2021/11/23 00:36:04;;;;;;;;;;;;;;;-1.13;100.00;101867.34;5093357;28;19986;-74
2021/11/23 00:38:31;;;;;;;;;;;;;;;-1.15;100.00;101863.81;5075000;28;20068;-74
2021/11/23 00:40:57;;;;;;;;;;;;;;;-1.19;100.00;101857.63;5093483;28;20021;-74
2021/11/23 00:43:23;;;;;;;;;;;;;;;-1.20;100.00;101856.78;5092337;28;19935;-74
2021/11/23 00:45:49;;;;;;;;;;;;;;;-1.17;100.00;101862.97;5092995;28;19924;-74
2021/11/23 00:48:16;;;;;;;;;;;;;;;-1.19;100.00;101847.88;5093121;28;20450;-74
2021/11/23 00:50:42;;;;;;;;;;;;;;;-1.19;100.00;101846.97;5093102;28;20011;-74
2021/11/23 00:53:10;;;;;;;;;;;;;;;-1.22;100.00;101845.25;5093069;28;19958;-74
2021/11/23 00:55:36;;;;;;;;;;;;;;;-1.21;100.00;101848.81;5092940;28;19963;-74
2021/11/23 00:58:03;;;;;;;;;;;;;;;-1.15;100.00;101847.81;5092972;28;19955;-74
2021/11/23 01:00:29;;;;;;;;;;;;;;;-1.12;100.00;101842.44;5092878;28;20014;-74
2021/11/23 01:02:57;;;;;;;;;;;;;;;-1.08;100.00;101849.50;5092544;28;20057;-74
2021/11/23 01:05:24;;;;;;;;;;;;;;;-1.08;100.00;101849.50;5092785;28;20018;-74
2021/11/23 01:07:50;;;;;;;;;;;;;;;-1.07;100.00;101854.81;5092608;28;19923;-74
2021/11/23 01:10:18;;;;;;;;;;;;;;;-1.03;100.00;101842.31;5092822;28;20022;-74
2021/11/23 01:12:44;;;;;;;;;;;;;;;-0.98;100.00;101847.59;5092618;28;19950;-74
2021/11/23 01:15:11;;;;;;;;;;;;;;;-0.96;100.00;101837.75;5092588;28;19937;-75
2021/11/23 01:17:38;;;;;;;;;;;;;;;-0.91;100.00;101831.47;5092569;28;19924;-74
2021/11/23 01:20:06;;;;;;;;;;;;;;;-0.89;100.00;101834.97;5092456;28;20059;-74
2021/11/23 01:22:33;;;;;;;;;;;;;;;-0.88;100.00;101844.75;5093100;28;20019;-75
2021/11/23 01:24:59;;;;;;;;;;;;;;;-0.87;100.00;101843.84;5092290;28;19977;-74
2021/11/23 01:27:26;;;;;;;;;;;;;;;-0.86;100.00;101828.72;5092405;28;19959;-73
2021/11/23 01:29:53;;;;;;;;;;;;;;;-0.88;100.00;101819.88;5092242;28;20019;-74
2021/11/23 01:32:19;;;;;;;;;;;;;;;-0.90;100.00;101827.00;5092242;28;20034;-74
2021/11/23 01:34:45;;;;;;;;;;;;;;;-0.88;100.00;101822.56;5092359;28;20492;-74
2021/11/23 01:37:12;;;;;;;;;;;;;;;-0.89;100.00;101827.00;5091790;28;19924;-74
2021/11/23 01:39:38;;;;;;;;;;;;;;;-0.90;100.00;101822.56;5092247;28;20359;-74
2021/11/23 01:42:05;;;;;;;;;;;;;;;-0.89;100.00;101821.66;5092162;28;20061;-73
2021/11/23 01:44:32;;;;;;;;;;;;;;;-0.82;100.00;101837.56;5092202;28;20476;-74
2021/11/23 01:46:59;;;;;;;;;;;;;;;-0.78;100.00;101837.47;5073877;28;20443;-73
2021/11/23 01:49:25;;;;;;;;;;;;;;;-0.73;100.00;101850.75;5092076;28;19977;-75
2021/11/23 01:51:51;;;;;;;;;;;;;;;-0.69;100.00;101831.13;5092160;28;20031;-75
2021/11/23 01:54:18;;;;;;;;;;;;;;;-0.72;100.00;101834.72;5091487;28;19966;-74
2021/11/23 01:56:44;;;;;;;;;;;;;;;-0.73;100.00;101824.94;5091845;28;19924;-74
2021/11/23 01:59:11;;;;;;;;;;;;;;;-0.78;100.00;101832.16;5091776;28;20004;-74
2021/11/23 02:01:39;;;;;;;;;;;;;;;-0.83;100.00;101831.34;5092064;28;20016;-73
2021/11/23 02:04:05;;;;;;;;;;;;;;;-0.86;100.00;101818.94;5091875;28;20408;-73
2021/11/23 02:06:32;;;;;;;;;;;;;;;-0.81;100.00;101815.34;5091392;28;19934;-73
2021/11/23 02:08:59;;;;;;;;;;;;;;;-0.72;100.00;101820.50;5091852;28;20023;-73
2021/11/23 02:11:25;;;;;;;;;;;;;;;-0.66;100.00;101817.72;5091624;28;19924;-75
2021/11/23 02:13:52;;;;;;;;;;;;;;;-0.57;100.00;101814.91;5091830;28;19924;-75
2021/11/23 02:16:18;;;;;;;;;;;;;;;-0.51;100.00;101817.47;5091588;28;19967;-75
2021/11/23 02:18:46;;;;;;;;;;;;;;;-0.46;100.00;101813.84;5091691;28;19981;-74
2021/11/23 02:21:14;;;;;;;;;;;;;;;-0.42;100.00;101804.88;5091656;28;20061;-74
2021/11/23 02:23:40;;;;;;;;;;;;;;;-0.38;100.00;101811.91;5091564;28;20030;-75
2021/11/23 02:26:06;;;;;;;;;;;;;;;-0.32;100.00;101805.56;5091665;28;19995;-74
2021/11/23 02:28:32;;;;;;;;;;;;;;;-0.28;100.00;101804.59;5091399;28;20298;-73
2021/11/23 02:31:00;;;;;;;;;;;;;;;-0.24;100.00;101799.19;5091794;28;20041;-74
2021/11/23 02:33:27;;;;;;;;;;;;;;;-0.21;100.00;101791.13;5091473;28;20015;-73
2021/11/23 02:35:56;;;;;;;;;;;;;;;-0.17;100.00;101790.16;5091485;28;20042;-74
2021/11/23 02:38:24;;;;;;;;;;;;;;;-0.11;100.00;101780.28;5091466;28;19962;-73
2021/11/23 02:40:51;;;;;;;;;;;;;;;-0.05;100.00;101781.03;5091340;28;20048;-73
2021/11/23 02:43:18;;;;;;;;;;;;;;;0.02;100.00;101787.13;5091586;28;19962;-73
2021/11/23 02:45:45;;;;;;;;;;;;;;;0.10;100.00;101779.81;5091181;28;19931;-74
2021/11/23 02:48:12;;;;;;;;;;;;;;;0.19;100.00;101784.09;5091659;28;20444;-73
2021/11/23 02:50:38;;;;;;;;;;;;;;;0.26;100.00;101784.84;5091236;28;20019;-73
2021/11/23 02:53:05;;;;;;;;;;;;;;;0.33;100.00;101762.44;5091573;28;19924;-73
2021/11/23 02:55:35;;;;;;;;;;;;;;;0.42;100.00;101778.25;5091248;28;20015;-73
2021/11/23 02:58:02;;;;;;;;;;;;;;;0.49;100.00;101782.56;5091187;28;19959;-73
2021/11/23 03:00:29;;;;;;;;;;;;;;;0.57;100.00;101778.84;5091480;28;19956;-73
2021/11/23 03:02:56;;;;;;;;;;;;;;;0.61;100.00;101776.03;5090790;28;19958;-74
2021/11/23 03:05:24;;;;;;;;;;;;;;;0.66;100.00;101770.63;5091185;28;20432;-73
2021/11/23 03:07:52;;;;;;;;;;;;;;;0.71;100.00;101770.50;5094175;28;19956;-73
2021/11/23 03:10:20;;;;;;;;;;;;;;;0.77;100.00;101778.38;5095161;28;19935;-74
2021/11/23 03:12:48;;;;;;;;;;;;;;;0.82;100.00;101785.38;5095341;28;19924;-73
2021/11/23 03:15:14;;;;;;;;;;;;;;;0.85;100.00;101776.41;5094777;28;20425;-73
2021/11/23 03:17:41;;;;;;;;;;;;;;;0.90;100.00;101777.16;5094766;28;20015;-73
2021/11/23 03:20:09;;;;;;;;;;;;;;;0.93;100.00;101778.88;5076678;28;19924;-73
2021/11/23 03:22:36;;;;;;;;;;;;;;;0.96;100.00;101778.81;5094844;28;20339;-73
2021/11/23 03:25:03;;;;;;;;;;;;;;;0.97;100.00;101777.91;5076351;28;20061;-73
2021/11/23 03:27:29;;;;;;;;;;;;;;;1.00;100.00;101783.16;5095147;28;20014;-73
2021/11/23 03:29:56;;;;;;;;;;;;;;;1.01;100.00;101784.94;5094768;28;20386;-73
2021/11/23 03:32:23;;;;;;;;;;;;;;;1.06;100.00;101783.03;5094458;28;20392;-73
2021/11/23 03:34:50;;;;;;;;;;;;;;;1.07;100.00;101778.53;5094821;28;20021;-73
2021/11/23 03:37:18;;;;;;;;;;;;;;;1.12;100.00;101782.88;5094211;28;20053;-74
2021/11/23 03:39:44;;;;;;;;;;;;;;;1.13;100.00;101779.25;5094489;28;19928;-74
2021/11/23 03:42:10;;;;;;;;;;;;;;;1.15;100.00;101781.94;5094472;28;19960;-74
2021/11/23 03:44:37;;;;;;;;;;;;;;;1.17;100.00;101770.25;5094618;28;20006;-74
2021/11/23 03:47:06;;;;;;;;;;;;;;;1.18;100.00;101760.44;5094327;28;19924;-74
2021/11/23 03:49:32;;;;;;;;;;;;;;;1.21;100.00;101768.38;5094059;28;20008;-74
2021/11/23 03:51:59;;;;;;;;;;;;;;;1.22;100.00;101761.25;5094359;28;19958;-75
2021/11/23 03:54:25;;;;;;;;;;;;;;;1.24;100.00;101748.69;5094126;28;19924;-74
2021/11/23 03:56:52;;;;;;;;;;;;;;;1.25;100.00;101754.00;5075839;28;20396;-74
2021/11/23 03:59:19;;;;;;;;;;;;;;;1.25;100.00;101751.34;5092800;28;19970;-75
2021/11/23 04:01:46;;;;;;;;;;;;;;;1.26;100.00;101760.25;5093993;28;19924;-74
2021/11/23 04:04:13;;;;;;;;;;;;;;;1.27;100.00;101746.84;5094307;28;19928;-74
2021/11/23 04:06:40;;;;;;;;;;;;;;;1.28;100.00;101755.72;5093645;28;20023;-74
2021/11/23 04:09:06;;;;;;;;;;;;;;;1.31;100.00;101740.47;5094115;28;20019;-73
2021/11/23 04:11:33;;;;;;;;;;;;;;;1.35;100.00;101738.63;5093808;28;19960;-73
2021/11/23 04:13:59;;;;;;;;;;;;;;;1.38;100.00;101741.19;5093977;28;20397;-74
2021/11/23 04:16:25;;;;;;;;;;;;;;;1.41;100.00;101743.78;5093654;28;19939;-74
2021/11/23 04:18:52;;;;;;;;;;;;;;;1.44;100.00;101727.66;5093506;28;20001;-73
2021/11/23 04:21:20;;;;;;;;;;;;;;;1.46;100.00;101738.31;5093664;28;20526;-73
2021/11/23 04:23:46;;;;;;;;;;;;;;;1.50;100.00;101735.50;5093613;28;20033;-73
2021/11/23 04:26:13;;;;;;;;;;;;;;;1.55;100.00;101735.41;5093618;28;20369;-73
2021/11/23 04:28:40;;;;;;;;;;;;;;;1.59;100.00;101736.16;5093352;28;20042;-73
2021/11/23 04:31:06;;;;;;;;;;;;;;;1.62;100.00;101728.94;5093665;28;19989;-74
2021/11/23 04:33:34;;;;;;;;;;;;;;;1.63;100.00;101728.03;5093399;28;19969;-73
2021/11/23 04:36:00;;;;;;;;;;;;;;;1.67;100.00;101720.75;5093149;28;20412;-74
2021/11/23 04:38:28;;;;;;;;;;;;;;;1.70;100.00;101720.69;5093345;28;20019;-74
2021/11/23 04:40:54;;;;;;;;;;;;;;;1.73;100.00;101731.31;5093145;28;20389;-73
2021/11/23 04:43:21;;;;;;;;;;;;;;;1.78;100.00;101723.16;5093305;28;20065;-73
2021/11/23 04:45:47;;;;;;;;;;;;;;;1.81;100.00;101726.63;5092909;28;20365;-73
2021/11/23 04:48:13;;;;;;;;;;;;;;;1.83;100.00;101724.78;5093089;28;20007;-74
2021/11/23 04:50:39;;;;;;;;;;;;;;;1.86;100.00;101726.50;5093231;28;19959;-74
2021/11/23 04:53:08;;;;;;;;;;;;;;;1.87;100.00;101716.66;5093375;28;19958;-73
2021/11/23 04:55:36;;;;;;;;;;;;;;;1.92;100.00;101717.41;5092955;28;20313;-73
2021/11/23 04:58:02;;;;;;;;;;;;;;;1.93;100.00;101719.16;5092960;28;19974;-74
2021/11/23 05:00:28;;;;;;;;;;;;;;;1.96;100.00;101717.25;5092905;28;20079;-73
2021/11/23 05:02:55;;;;;;;;;;;;;;;1.96;100.00;101721.75;5093009;28;19977;-74
2021/11/23 05:05:21;;;;;;;;;;;;;;;1.97;100.00;101728.88;5092738;28;19930;-75
2021/11/23 05:07:47;;;;;;;;;;;;;;;2.02;100.00;101721.56;5092798;28;20009;-75
2021/11/23 05:10:15;;;;;;;;;;;;;;;2.03;100.00;101725.97;5092620;28;20057;-75
2021/11/23 05:12:43;;;;;;;;;;;;;;;2.05;100.00;101724.16;5092372;28;20376;-74
2021/11/23 05:15:09;;;;;;;;;;;;;;;2.07;100.00;101735.72;5082582;28;20468;-74
2021/11/23 05:17:36;;;;;;;;;;;;;;;2.10;100.00;101740.06;5078313;28;20072;-74
2021/11/23 05:20:03;;;;;;;;;;;;;;;2.09;100.00;101732.97;5092092;28;20404;-74
2021/11/23 05:22:29;;;;;;;;;;;;;;;2.07;100.00;101738.38;5091862;28;19937;-74
2021/11/23 05:24:56;;;;;;;;;;;;;;;2.07;100.00;101734.81;5092331;28;19958;-74
2021/11/23 05:27:23;;;;;;;;;;;;;;;2.07;100.00;101738.38;5091629;28;19962;-74
2021/11/23 05:29:50;;;;;;;;;;;;;;;2.09;100.00;101754.41;5091756;28;20036;-74
2021/11/23 05:32:17;;;;;;;;;;;;;;;2.08;100.00;101750.84;5092190;28;20363;-74
2021/11/23 05:34:43;;;;;;;;;;;;;;;2.07;100.00;101753.56;5092210;28;19924;-75
2021/11/23 05:37:09;;;;;;;;;;;;;;;2.07;100.00;101753.56;5092055;28;19977;-74
2021/11/23 05:39:35;;;;;;;;;;;;;;;2.07;100.00;101751.78;5073246;28;20067;-75
2021/11/23 05:42:02;;;;;;;;;;;;;;;2.09;100.00;101755.28;5092151;28;19959;-74
2021/11/23 05:44:29;;;;;;;;;;;;;;;2.08;100.00;101753.50;5091603;28;19958;-74
2021/11/23 05:46:57;;;;;;;;;;;;;;;2.09;100.00;101755.28;5091575;28;20027;-74
2021/11/23 05:49:23;;;;;;;;;;;;;;;2.11;100.00;101769.53;5091972;28;20472;-74
2021/11/23 05:51:49;;;;;;;;;;;;;;;2.14;100.00;101765.88;5091541;28;19977;-74
2021/11/23 05:54:15;;;;;;;;;;;;;;;2.16;100.00;101756.88;5092056;28;20458;-74
2021/11/23 05:56:42;;;;;;;;;;;;;;;2.18;100.00;101746.97;5091442;28;20052;-74
2021/11/23 05:59:08;;;;;;;;;;;;;;;2.21;100.00;101750.50;5092396;28;20049;-74
2021/11/23 06:01:34;;;;;;;;;;;;;;;2.21;100.00;101755.84;5091453;28;20436;-74
2021/11/23 06:04:02;;;;;;;;;;;;;;;2.23;100.00;101757.56;5091675;28;20436;-74
2021/11/23 06:06:28;;;;;;;;;;;;;;;2.25;100.00;101763.75;5091365;28;19924;-74
2021/11/23 06:08:55;;;;;;;;;;;;;;;2.28;100.00;101757.41;5091316;28;20002;-75
2021/11/23 06:11:21;;;;;;;;;;;;;;;2.28;100.00;101757.41;5091434;28;19974;-75
2021/11/23 06:13:47;;;;;;;;;;;;;;;2.32;100.00;101767.97;5091437;28;20418;-75
2021/11/23 06:16:14;;;;;;;;;;;;;;;2.37;100.00;101772.34;5091444;28;20024;-75
2021/11/23 06:18:40;;;;;;;;;;;;;;;2.39;100.00;101771.34;5091487;28;19924;-75
2021/11/23 06:21:08;;;;;;;;;;;;;;;2.44;100.00;101774.78;5090923;28;19930;-75
2021/11/23 06:23:35;;;;;;;;;;;;;;;2.47;100.00;101781.84;5091826;28;19931;-75
2021/11/23 06:26:01;;;;;;;;;;;;;;;2.48;100.00;101789.84;5073000;28;20437;-74
2021/11/23 06:28:28;;;;;;;;;;;;;;;2.52;100.00;101796.00;5091676;28;20014;-74
2021/11/23 06:30:54;;;;;;;;;;;;;;;2.55;100.00;101786.97;5091510;28;20022;-75
2021/11/23 06:33:20;;;;;;;;;;;;;;;2.55;100.00;101786.97;5091466;28;20057;-75
2021/11/23 06:35:47;;;;;;;;;;;;;;;2.56;100.00;101786.06;5089238;28;19965;-74
2021/11/23 06:38:15;;;;;;;;;;;;;;;2.56;100.00;101783.38;5091082;28;20011;-76
2021/11/23 06:40:42;;;;;;;;;;;;;;;2.57;100.00;101793.19;5091198;28;20065;-75
2021/11/23 06:43:09;;;;;;;;;;;;;;;2.59;100.00;101799.34;5090640;28;19935;-75
2021/11/23 06:45:36;;;;;;;;;;;;;;;2.63;100.00;101817.09;5064205;28;20319;-76
2021/11/23 06:48:02;;;;;;;;;;;;;;;2.66;100.00;101820.56;5083636;28;19959;-73
2021/11/23 06:50:32;;;;;;;;;;;;;;;2.69;100.00;101822.28;5087169;28;20338;-75
2021/11/23 06:52:59;;;;;;;;;;;;;;;2.69;100.00;101819.59;5092717;28;19970;-75
2021/11/23 06:55:26;;;;;;;;;;;;;;;2.72;100.00;101826.69;5075769;28;19960;-74
2021/11/23 06:57:53;;;;;;;;;;;;;;;2.71;100.00;101828.47;5065899;28;19966;-73
2021/11/23 07:00:19;;;;;;;;;;;;;;;2.75;100.00;101840.84;5094965;28;19964;-74
2021/11/23 07:02:46;;;;;;;;;;;;;;;2.77;100.00;101844.38;5094335;28;19958;-74
2021/11/23 07:05:12;;;;;;;;;;;;;;;2.78;100.00;101840.78;5094820;28;19970;-74
2021/11/23 07:07:39;;;;;;;;;;;;;;;2.77;100.00;101852.44;5093638;28;20384;-74
2021/11/23 07:10:07;;;;;;;;;;;;;;;2.80;100.00;101848.78;5094911;28;20007;-74
2021/11/23 07:12:35;;;;;;;;;;;;;;;2.83;100.00;101843.31;5094284;28;20420;-74
2021/11/23 07:15:01;;;;;;;;;;;;;;;2.85;100.00;101842.34;5091582;28;20082;-74
2021/11/23 07:17:27;;;;;;;;;;;;;;;2.89;100.00;101848.50;5094535;28;20023;-74
2021/11/23 07:19:54;;;;;;;;;;;;;;;2.90;100.00;101846.69;5094867;28;20011;-73
2021/11/23 07:22:20;;;;;;;;;;;;;;;2.93;100.00;101843.91;5093838;28;20051;-73
2021/11/23 07:24:47;;;;;;;;;;;;;;;2.96;100.00;101843.81;5094384;28;19953;-73
2021/11/23 07:27:13;;;;;;;;;;;;;;;3.01;100.00;101842.72;5094504;28;20053;-74
2021/11/23 07:29:40;;;;;;;;;;;;;;;3.08;100.00;101839.88;5094717;28;19973;-74
2021/11/23 07:32:08;;;;;;;;;;;;;;;3.13;100.00;101840.59;5094201;28;19963;-74
2021/11/23 07:34:34;;;;;;;;;;;;;;;3.16;100.00;101838.66;5094453;28;20332;-73
2021/11/23 07:37:00;;;;;;;;;;;;;;;3.18;100.00;101842.19;5094068;28;20045;-74
2021/11/23 07:39:27;;;;;;;;;;;;;;;3.22;100.00;101842.09;5094224;28;20024;-74
2021/11/23 07:41:54;;;;;;;;;;;;;;;3.26;100.00;101841.06;5085725;28;19970;-74
2021/11/23 07:44:20;;;;;;;;;;;;;;;3.28;100.00;101840.06;5074083;28;20350;-73
2021/11/23 07:46:48;;;;;;;;;;;;;;;3.30;100.00;101842.72;5092788;28;20464;-73
2021/11/23 07:49:14;;;;;;;;;;;;;;;3.34;100.00;101845.25;5094239;28;20338;-73
2021/11/23 07:51:41;;;;;;;;;;;;;;;3.36;100.00;101850.56;5093786;28;20010;-73
2021/11/23 07:54:07;;;;;;;;;;;;;;;3.39;100.00;101846.91;5093771;28;19963;-75
2021/11/23 07:56:33;;;;;;;;;;;;;;;3.42;100.00;101842.31;5093373;28;19949;-74
2021/11/23 07:59:00;;;;;;;;;;;;;;;3.45;100.00;101841.34;5076108;28;20460;-75
2021/11/23 08:01:26;;;;;;;;;;;;;;;3.47;100.00;101844.84;5093250;28;20479;-74
2021/11/23 08:03:54;;;;;;;;;;;;;;;3.49;100.00;101856.41;5094051;28;20402;-74
2021/11/23 08:06:20;;;;;;;;;;;;;;;3.50;100.00;101860.84;5093268;28;19965;-74
2021/11/23 08:08:47;;;;;;;;;;;;;;;3.52;100.00;101862.53;5093270;28;19970;-74
2021/11/23 08:11:13;;;;;;;;;;;;;;;3.56;100.00;101867.84;5082700;28;20301;-74
2021/11/23 08:13:40;;;;;;;;;;;;;;;3.59;100.00;101859.66;5073916;28;19942;-74
2021/11/23 08:16:06;;;;;;;;;;;;;;;3.62;100.00;101854.19;5093581;28;19959;-74
2021/11/23 08:18:32;;;;;;;;;;;;;;;3.61;100.00;101849.75;5089817;28;19972;-74
2021/11/23 08:21:01;;;;;;;;;;;;;;;3.64;100.00;101858.56;5073319;28;20019;-75
2021/11/23 08:23:27;;;;;;;;;;;;;;;3.68;100.00;101851.28;5079214;28;20439;-74
2021/11/23 08:25:54;;;;;;;;;;;;;;;3.71;100.00;101853.00;5092511;28;19928;-74
2021/11/23 08:28:20;;;;;;;;;;;;;;;3.77;100.00;101848.28;5092743;28;19966;-73
2021/11/23 08:30:47;;;;;;;;;;;;;;;3.81;100.00;101858.00;5093307;28;19964;-74
2021/11/23 08:33:13;;;;;;;;;;;;;;;3.82;100.00;101846.31;5093132;28;19978;-73
2021/11/23 08:35:39;;;;;;;;;;;;;;;3.87;100.00;101867.63;5093310;28;20419;-73
2021/11/23 08:38:08;;;;;;;;;;;;;;;3.89;100.00;101871.16;5078219;28;20410;-73
2021/11/23 08:40:34;;;;;;;;;;;;;;;3.91;100.00;101873.78;5092330;28;19959;-72
2021/11/23 08:43:01;;;;;;;;;;;;;;;3.95;100.00;101856.63;5092789;28;19970;-73
2021/11/23 08:45:27;;;;;;;;;;;;;;;4.00;100.00;101860.03;5092751;28;20019;-73
2021/11/23 08:47:53;;;;;;;;;;;;;;;4.02;100.00;101868.91;5089231;28;20049;-73
2021/11/23 08:50:20;;;;;;;;;;;;;;;4.04;100.00;101867.06;5074755;28;19924;-73
2021/11/23 08:52:46;;;;;;;;;;;;;;;4.02;100.00;101861.75;5093396;28;19982;-73
2021/11/23 08:55:14;;;;;;;;;;;;;;;4.03;100.00;101862.59;5092793;28;20439;-74
2021/11/23 08:57:40;;;;;;;;;;;;;;;4.08;100.00;101866.00;5092933;28;19963;-73
2021/11/23 09:00:14;;;;;;;;;;;;;;;4.13;100.00;101864.03;5092732;28;20413;-73
2021/11/23 09:02:41;;;;;;;;;;;;;;;4.15;100.00;101870.22;5092762;28;20019;-73
2021/11/23 09:05:08;;;;;;;;;;;;;;;4.23;100.00;101877.16;5091401;28;19973;-73
2021/11/23 09:07:34;;;;;;;;;;;;;;;4.24;100.00;101886.97;5092638;28;19955;-74
2021/11/23 09:10:01;;;;;;;;;;;;;;;4.28;100.00;101885.94;5092614;28;19960;-73
2021/11/23 09:12:29;;;;;;;;;;;;;;;4.31;100.00;101881.28;5092686;28;19977;-73
2021/11/23 09:14:55;;;;;;;;;;;;;;;4.34;100.00;101899.13;5092634;28;20090;-73
2021/11/23 09:17:21;;;;;;;;;;;;;;;4.40;100.00;101903.41;5092156;28;20017;-73
2021/11/23 09:19:48;;;;;;;;;;;;;;;4.45;100.00;101901.41;5092577;28;20014;-73
2021/11/23 09:22:14;;;;;;;;;;;;;;;4.48;100.00;101899.50;5092320;28;20064;-73
2021/11/23 09:24:40;;;;;;;;;;;;;;;4.50;100.00;101896.75;5074149;28;20031;-75
2021/11/23 09:27:07;;;;;;;;;;;;;;;4.48;100.00;101894.13;5092150;28;19953;-74
2021/11/23 09:29:34;;;;;;;;;;;;;;;4.55;100.00;101896.59;5092153;28;20021;-74
2021/11/23 09:32:01;;;;;;;;;;;;;;;4.62;100.00;101906.19;5092275;28;20031;-74
2021/11/23 09:34:28;;;;;;;;;;;;;;;4.65;100.00;101906.94;5091815;28;19958;-73
2021/11/23 09:36:55;;;;;;;;;;;;;;;4.65;100.00;101906.94;5091552;28;20023;-74
2021/11/23 09:39:21;;;;;;;;;;;;;;;4.66;100.00;101902.44;5090996;28;20018;-74
2021/11/23 09:41:47;;;;;;;;;;;;;;;4.68;100.00;101898.75;5081731;28;19994;-73
2021/11/23 09:44:13;;;;;;;;;;;;;;;4.71;100.00;101902.28;5073352;28;20023;-76
2021/11/23 09:46:41;;;;;;;;;;;;;;;4.71;100.00;101895.06;5073834;28;19978;-75
2021/11/23 09:49:08;;;;;;;;;;;;;;;4.74;100.00;101892.25;5091663;28;20053;-73
2021/11/23 09:51:36;;;;;;;;;;;;;;;4.78;100.00;101895.72;5090758;28;19928;-73
2021/11/23 09:54:04;;;;;;;;;;;;;;;4.76;100.00;101901.16;5091799;28;20491;-73
2021/11/23 09:56:31;;;;;;;;;;;;;;;4.78;100.00;101899.28;5091560;28;20448;-73
2021/11/23 09:58:57;;;;;;;;;;;;;;;4.78;100.00;101906.47;5091562;28;20393;-73
2021/11/23 10:01:24;;;;;;;;;;;;;;;4.81;100.00;101898.28;5091089;28;19960;-73
2021/11/23 10:03:53;;;;;;;;;;;;;;;4.85;100.00;101887.34;5091618;28;19956;-72
2021/11/23 10:06:22;;;;;;;;;;;;;;;4.89;100.00;101898.00;5072722;28;20443;-73
2021/11/23 10:08:49;;;;;;;;;;;;;;;4.92;100.00;101900.56;5081260;28;19954;-73
2021/11/23 10:11:21;;;;;;;;;;;;;;;4.97;100.00;101899.47;5090512;28;20401;-72
2021/11/23 10:13:48;;;;;;;;;;;;;;;5.01;100.00;101894.81;5091004;28;19942;-73
2021/11/23 10:16:15;;;;;;;;;;;;;;;5.07;100.00;101894.59;5088270;28;20297;-73
2021/11/23 10:18:42;;;;;;;;;;;;;;;5.17;100.00;101897.78;5073025;28;20053;-73
2021/11/23 10:21:11;;;;;;;;;;;;;;;5.20;100.00;101898.53;5073783;28;20002;-73
2021/11/23 10:23:39;;;;;;;;;;;;;;;5.19;100.00;101895.91;5067123;28;20073;-74
2021/11/23 10:26:08;;;;;;;;;;;;;;;5.18;100.00;101889.66;5091334;28;19994;-73
2021/11/23 10:28:35;;;;;;;;;;;;;;;5.22;100.00;101890.41;5091165;28;19984;-73
2021/11/23 10:31:02;;;;;;;;;;;;;;;5.23;100.00;101893.97;5091289;28;19924;-74
2021/11/23 10:33:29;;;;;;;;;;;;;;;5.18;100.00;101888.78;5091107;28;19924;-74
2021/11/23 10:35:58;;;;;;;;;;;;;;;5.20;100.00;101893.16;5091339;28;19974;-74
2021/11/23 10:38:27;;;;;;;;;;;;;;;5.25;100.00;101886.69;5090872;28;20157;-74
2021/11/23 10:40:54;;;;;;;;;;;;;;;5.26;100.00;101889.34;5091448;28;19962;-74
2021/11/23 10:43:21;;;;;;;;;;;;;;;5.25;100.00;101884.00;5090869;28;19967;-74
2021/11/23 10:45:49;;;;;;;;;;;;;;;5.20;100.00;101885.06;5091280;28;20351;-74
2021/11/23 10:48:18;;;;;;;;;;;;;;;5.18;100.00;101886.97;5090813;28;19970;-73
2021/11/23 10:50:57;;;;;;;;;;;;;;;5.19;100.00;101879.75;5090803;28;20055;-73
2021/11/23 10:53:24;;;;;;;;;;;;;;;5.20;100.00;101878.84;5090937;28;20376;-74
2021/11/23 10:55:52;;;;;;;;;;;;;;;5.24;100.00;101887.63;5090564;28;19942;-74
2021/11/23 10:58:18;;;;;;;;;;;;;;;5.26;100.00;101883.94;5090747;28;19993;-74
2021/11/23 11:00:47;;;;;;;;;;;;;;;5.27;100.00;101871.38;5090879;28;20091;-74
2021/11/23 11:03:16;;;;;;;;;;;;;;;5.24;100.00;101874.19;5090818;28;19928;-72
2021/11/23 11:05:43;;;;;;;;;;;;;;;5.28;100.00;101868.63;5090127;28;20447;-72
2021/11/23 11:08:09;;;;;;;;;;;;;;;5.34;100.00;101864.78;5090556;28;19924;-75
2021/11/23 11:10:37;;;;;;;;;;;;;;;5.38;100.00;101871.81;5085216;28;20427;-74
2021/11/23 11:13:06;;;;;;;;;;;;;;;5.41;100.00;101858.22;5083543;28;19980;-73
2021/11/23 11:15:33;;;;;;;;;;;;;;;5.40;100.00;101866.34;5090388;28;20006;-74
2021/11/23 11:18:00;;;;;;;;;;;;;;;5.42;100.00;101870.72;5089320;28;20402;-73
2021/11/23 11:20:39;;;;;;;;;;;;;;;5.39;100.00;101870.00;5090652;28;20009;-73
2021/11/23 11:23:06;;;;;;;;;;;;;;;5.40;100.00;101885.19;5087797;28;19956;-73
2021/11/23 11:25:48;;;;;;;;;;;;;;;5.40;100.00;101875.31;5086469;28;20056;-73
2021/11/23 11:28:15;;;;;;;;;;;;;;;5.39;100.00;101878.94;5092624;28;19977;-73
2021/11/23 11:30:51;;;;;;;;;;;;;;;5.40;100.00;101878.00;5094245;28;19978;-74
2021/11/23 11:33:23;;;;;;;;;;;;;;;5.38;100.00;101882.56;5092890;28;19950;-73
2021/11/23 11:35:50;;;;;;;;;;;;;;;5.41;100.00;101879.78;5093848;28;19938;-73
2021/11/23 11:38:36;;;;;;;;;;;;;;;5.40;100.00;101880.72;5093887;28;20445;-73
2021/11/23 11:41:04;;;;;;;;;;;;;;;5.41;100.00;101879.78;5083904;28;20005;-74
2021/11/23 11:43:33;;;;;;;;;;;;;;;5.47;100.00;101879.50;5094325;28;19958;-73
2021/11/23 11:45:59;;;;;;;;;;;;;;;5.50;100.00;101862.34;5094322;28;20014;-74
2021/11/23 11:48:26;;;;;;;;;;;;;;;5.55;100.00;101865.72;5075347;28;20367;-74
2021/11/23 11:51:00;;;;;;;;;;;;;;;5.59;100.00;101855.72;5094280;28;19935;-73
2021/11/23 11:53:30;;;;;;;;;;;;;;;5.62;100.00;101856.44;5093659;28;20467;-73
2021/11/23 11:55:56;;;;;;;;;;;;;;;5.60;100.00;101854.75;5068449;28;20026;-74
2021/11/23 11:58:40;;;;;;;;;;;;;;;5.62;100.00;101850.19;5093487;28;19925;-75
2021/11/23 12:01:22;;;;;;;;;;;;;;;5.66;100.00;101858.03;5093661;28;20054;-74
2021/11/23 12:03:59;;;;;;;;;;;;;;;5.67;100.00;101857.13;5093083;28;20057;-75
2021/11/23 12:06:50;;;;;;;;;;;;;;;5.70;100.00;101865.09;5093005;28;19948;-73
2021/11/23 12:09:26;;;;;;;;;;;;;;;5.76;100.00;101858.56;5093135;28;19994;-74
2021/11/23 12:11:53;;;;;;;;;;;;;;;5.75;100.00;101867.56;5075248;28;20388;-74
2021/11/23 12:14:22;;;;;;;;;;;;;;;5.78;100.00;101872.81;5092795;28;20297;-73
2021/11/23 12:16:53;;;;;;;;;;;;;;;5.77;100.00;101864.81;5092616;28;19930;-73
2021/11/23 12:19:29;;;;;;;;;;;;;;;5.77;100.00;101873.78;5092454;28;21602;-73
2021/11/23 12:21:56;;;;;;;;;;;;;;;5.78;100.00;101872.81;5073529;28;19993;-74
2021/11/23 12:24:26;;;;;;;;;;;;;;;5.76;100.00;101874.72;5092968;28;19968;-74
2021/11/23 12:26:54;;;;;;;;;;;;;;;5.77;100.00;101864.81;5092716;28;20049;-73
2021/11/23 12:29:25;;;;;;;;;;;;;;;5.81;100.00;101869.13;5092209;28;19969;-73
2021/11/23 12:31:53;;;;;;;;;;;;;;;5.82;100.00;101869.03;5073567;28;19990;-73
2021/11/23 12:34:19;;;;;;;;;;;;;;;5.82;100.00;101870.88;5093092;28;20000;-74
2021/11/23 12:36:47;;;;;;;;;;;;;;;5.81;100.00;101861.94;5092528;28;20002;-75